Southlake, Texas
Current Conditions -  °F | °C
As of 5:53 PM on Sunday 23 Nov 2014 (Local Time) from KDFW Reporting Station
Few Clouds Few Clouds  
Wind Chill: 63°   Ceiling: Unl
Heat Index: 63°   Visibility: 10mi
Dew Point: 43°   Wind: 25mph
Humidity: 48%   Direction: 300°WNW
Pressure: 29.54"   Gusts: 31mph
Location:  32.95°N, 97.13°W
Report Text: KDFW 232353Z 30022G27KT 10SM FEW070 17/06 A2954 RMK AO2 PK WND 30032/2257 PRESRR SLP998 T01720061 10250 20172 53050 $
Loading
Personal Weather Stations






























Interactive Weather Map New forecast layout! Learn more

10-Day Weather Forecast

Advertisements
Track Severe Weather on mobile